createdAt,value
2018-12-14T00:00:26.153Z,16.90
2018-12-14T00:02:53.599Z,20.20
2018-12-14T00:05:21.049Z,19.27
2018-12-14T00:07:48.524Z,17.67
2018-12-14T00:10:15.993Z,15.93
2018-12-14T00:12:43.446Z,19.30
2018-12-14T00:15:10.966Z,22.10
2018-12-14T00:17:38.491Z,22.90
2018-12-14T00:20:06.586Z,22.27
2018-12-14T00:22:34.082Z,20.90
2018-12-14T00:25:01.706Z,20.70
2018-12-14T00:27:29.302Z,22.00
2018-12-14T00:29:57.125Z,18.60
2018-12-14T00:32:24.941Z,21.50
2018-12-14T00:34:52.529Z,22.17
2018-12-14T00:37:20.018Z,18.93
2018-12-14T00:39:47.544Z,21.97
2018-12-14T00:42:15.072Z,18.60
2018-12-14T00:44:42.526Z,21.17
2018-12-14T00:47:09.993Z,19.60
2018-12-14T00:49:37.451Z,21.57
2018-12-14T00:52:04.942Z,23.03
2018-12-14T00:54:32.397Z,24.93
2018-12-14T00:56:59.849Z,22.30
2018-12-14T00:59:27.334Z,23.47
2018-12-14T01:01:54.818Z,24.40
2018-12-14T01:04:22.297Z,22.10
2018-12-14T01:06:49.760Z,23.23
2018-12-14T01:09:17.241Z,21.77
2018-12-14T01:11:44.728Z,22.00
2018-12-14T01:14:12.185Z,29.60
2018-12-14T01:16:39.701Z,20.93
2018-12-14T01:19:07.233Z,19.87
2018-12-14T01:21:34.730Z,21.07
2018-12-14T01:24:02.281Z,22.57
2018-12-14T01:26:29.734Z,28.77
2018-12-14T01:28:57.217Z,24.80
2018-12-14T01:31:24.675Z,16.47
2018-12-14T01:33:52.165Z,20.50
2018-12-14T01:36:19.645Z,25.63
2018-12-14T01:38:47.102Z,24.70
2018-12-14T01:41:14.586Z,20.10
2018-12-14T01:43:42.036Z,25.80
2018-12-14T01:46:09.506Z,24.50
2018-12-14T01:48:37.037Z,20.37
2018-12-14T01:51:04.545Z,26.60
2018-12-14T01:53:32.024Z,28.63
2018-12-14T01:55:59.621Z,25.20
2018-12-14T01:58:27.117Z,21.67
2018-12-14T02:00:54.575Z,21.40
2018-12-14T02:03:22.044Z,25.00
2018-12-14T02:05:49.527Z,21.73
2018-12-14T02:08:17.013Z,19.60
2018-12-14T02:10:44.480Z,20.07
2018-12-14T02:13:11.986Z,25.67
2018-12-14T02:15:39.450Z,22.60
2018-12-14T02:18:06.971Z,24.27
2018-12-14T02:20:34.419Z,21.13
2018-12-14T02:23:01.945Z,22.27
2018-12-14T02:25:29.398Z,26.63
2018-12-14T02:27:56.869Z,16.23
2018-12-14T02:30:36.251Z,24.33
2018-12-14T02:33:03.789Z,25.13
2018-12-14T02:35:31.344Z,31.23
2018-12-14T02:37:59.054Z,25.47
2018-12-14T02:40:26.515Z,19.87
2018-12-14T02:42:54.042Z,32.67
2018-12-14T02:45:21.495Z,29.60
2018-12-14T02:47:48.983Z,25.90
2018-12-14T02:50:16.562Z,29.63
2018-12-14T02:52:44.020Z,35.67
2018-12-14T02:55:11.526Z,28.50
2018-12-14T02:57:39.050Z,21.83
2018-12-14T03:00:08.591Z,26.37
2018-12-14T03:02:36.256Z,30.33
2018-12-14T03:05:04.809Z,28.27
2018-12-14T03:07:32.476Z,29.37
2018-12-14T03:10:00.228Z,24.10
2018-12-14T03:12:27.702Z,24.60
2018-12-14T03:14:55.164Z,26.30
2018-12-14T03:17:22.878Z,25.37
2018-12-14T03:19:50.723Z,29.10
2018-12-14T03:22:18.362Z,33.60
2018-12-14T03:24:45.818Z,30.57
2018-12-14T03:27:13.285Z,30.30
2018-12-14T03:29:40.763Z,27.70
2018-12-14T03:32:08.251Z,32.20
2018-12-14T03:34:35.903Z,30.33
2018-12-14T03:37:03.442Z,41.30
2018-12-14T03:39:30.913Z,30.17
2018-12-14T03:41:58.367Z,26.90
2018-12-14T03:44:25.854Z,36.90
2018-12-14T03:46:53.309Z,30.63
2018-12-14T03:49:20.810Z,29.60
2018-12-14T03:51:48.378Z,31.30
2018-12-14T03:54:15.967Z,32.33
2018-12-14T03:56:43.423Z,35.00
2018-12-14T03:59:10.907Z,34.47
2018-12-14T04:01:38.355Z,33.40
2018-12-14T04:04:05.834Z,30.93
2018-12-14T04:06:33.290Z,31.27
2018-12-14T04:09:00.770Z,41.43
2018-12-14T04:11:28.241Z,34.77
2018-12-14T04:13:55.707Z,39.93
2018-12-14T04:16:23.174Z,38.57
2018-12-14T04:18:50.636Z,33.43
2018-12-14T04:21:18.231Z,31.10
2018-12-14T04:23:45.722Z,45.23
2018-12-14T04:26:13.220Z,33.40
2018-12-14T04:28:40.694Z,44.27
2018-12-14T04:31:08.145Z,48.90
2018-12-14T04:33:35.901Z,43.03
2018-12-14T04:36:03.403Z,28.30
2018-12-14T04:38:30.881Z,42.50
2018-12-14T04:40:58.331Z,36.63
2018-12-14T04:43:25.815Z,38.23
2018-12-14T04:45:53.290Z,36.00
2018-12-14T04:48:20.745Z,37.70
2018-12-14T04:50:48.234Z,36.00
2018-12-14T04:53:15.685Z,35.70
2018-12-14T04:55:43.184Z,34.23
2018-12-14T04:58:10.706Z,37.30
2018-12-14T05:00:38.199Z,39.90
2018-12-14T05:03:05.726Z,46.97
2018-12-14T05:05:33.182Z,33.27
2018-12-14T05:08:00.663Z,44.87
2018-12-14T05:10:28.106Z,35.67
2018-12-14T05:12:56.258Z,40.27
2018-12-14T05:15:24.191Z,46.90
2018-12-14T05:17:51.660Z,42.67
2018-12-14T05:20:19.149Z,41.43
2018-12-14T05:22:46.626Z,44.30
2018-12-14T05:25:14.077Z,35.03
2018-12-14T05:27:41.594Z,44.37
2018-12-14T05:30:09.182Z,36.07
2018-12-14T05:32:36.667Z,41.70
2018-12-14T05:35:04.658Z,38.60
2018-12-14T05:37:32.114Z,44.40
2018-12-14T05:39:59.677Z,33.30
2018-12-14T05:42:27.187Z,37.73
2018-12-14T05:44:54.642Z,48.50
2018-12-14T05:47:22.209Z,47.70
2018-12-14T05:49:49.670Z,46.67
2018-12-14T05:52:17.167Z,33.60
2018-12-14T05:54:44.642Z,39.53
2018-12-14T05:57:12.094Z,47.10
2018-12-14T05:59:39.573Z,41.43
2018-12-14T06:02:07.030Z,37.43
2018-12-14T06:04:34.514Z,41.43
2018-12-14T06:07:01.970Z,50.27
2018-12-14T06:09:29.505Z,42.47
2018-12-14T06:11:57.013Z,39.80
2018-12-14T06:14:24.582Z,42.33
2018-12-14T06:16:52.034Z,47.20
2018-12-14T06:19:19.517Z,42.63
2018-12-14T06:21:47.022Z,54.53
2018-12-14T06:24:14.614Z,46.33
2018-12-14T06:26:42.252Z,48.97
2018-12-14T06:29:09.729Z,36.97
2018-12-14T06:31:37.298Z,30.97
2018-12-14T06:34:04.817Z,31.40
2018-12-14T06:36:32.293Z,34.53
2018-12-14T06:38:59.770Z,44.37
2018-12-14T06:41:27.253Z,35.93
2018-12-14T06:43:54.714Z,33.10
2018-12-14T06:46:22.187Z,36.60
2018-12-14T06:48:49.652Z,33.87
2018-12-14T06:51:17.142Z,38.90
2018-12-14T06:53:44.593Z,42.97
2018-12-14T06:56:12.078Z,34.80
2018-12-14T06:58:39.549Z,45.33
2018-12-14T07:01:07.051Z,39.63
2018-12-14T07:03:34.526Z,39.20
2018-12-14T07:06:02.061Z,42.00
2018-12-14T07:08:29.547Z,46.13
2018-12-14T07:10:56.990Z,39.73
2018-12-14T07:13:24.559Z,43.03
2018-12-14T07:15:52.064Z,33.50
2018-12-14T07:18:19.542Z,34.27
2018-12-14T07:20:47.258Z,29.90
2018-12-14T07:23:14.766Z,40.63
2018-12-14T07:25:42.302Z,37.23
2018-12-14T07:28:09.777Z,35.33
2018-12-14T07:30:37.892Z,41.17
2018-12-14T07:33:05.405Z,36.40
2018-12-14T07:35:32.853Z,36.83
2018-12-14T07:38:00.338Z,44.50
2018-12-14T07:40:27.831Z,40.80
2018-12-14T07:42:55.341Z,39.67
2018-12-14T07:45:22.790Z,37.90
2018-12-14T07:47:50.278Z,48.57
2018-12-14T07:50:17.750Z,41.47
2018-12-14T07:52:45.242Z,43.83
2018-12-14T07:55:12.833Z,45.47
2018-12-14T07:57:40.291Z,42.20
2018-12-14T08:00:08.109Z,36.40
2018-12-14T08:02:35.612Z,36.97
2018-12-14T08:05:04.382Z,29.50
2018-12-14T08:07:31.855Z,38.70
2018-12-14T08:09:59.310Z,40.43
2018-12-14T08:12:26.846Z,39.70
2018-12-14T08:14:54.407Z,31.67
2018-12-14T08:17:21.862Z,44.03
2018-12-14T08:19:49.355Z,31.93
2018-12-14T08:22:16.846Z,38.00
2018-12-14T08:24:44.340Z,38.37
2018-12-14T08:27:11.814Z,35.97
2018-12-14T08:29:39.303Z,34.40
2018-12-14T08:32:06.761Z,36.10
2018-12-14T08:34:34.244Z,32.93
2018-12-14T08:37:01.777Z,42.20
2018-12-14T08:39:29.282Z,34.80
2018-12-14T08:41:56.959Z,29.80
2018-12-14T08:44:24.451Z,32.60
2018-12-14T08:46:51.990Z,38.23
2018-12-14T08:49:19.501Z,33.30
2018-12-14T08:51:46.969Z,35.47
2018-12-14T08:54:14.471Z,29.00
2018-12-14T08:56:42.680Z,32.43
2018-12-14T08:59:10.167Z,32.77
2018-12-14T09:01:37.682Z,23.00
2018-12-14T09:04:05.138Z,32.93
2018-12-14T09:06:32.611Z,31.00
2018-12-14T09:09:00.061Z,28.87
2018-12-14T09:11:27.632Z,30.33
2018-12-14T09:13:55.099Z,38.90
2018-12-14T09:16:22.588Z,37.90
2018-12-14T09:18:50.046Z,32.57
2018-12-14T09:21:17.523Z,31.70
2018-12-14T09:23:44.972Z,32.23
2018-12-14T09:26:12.839Z,30.13
2018-12-14T09:28:40.458Z,29.60
2018-12-14T09:31:07.958Z,30.57
2018-12-14T09:33:35.422Z,31.00
2018-12-14T09:36:02.903Z,34.07
2018-12-14T09:38:30.361Z,28.97
2018-12-14T09:40:57.834Z,31.20
2018-12-14T09:43:25.334Z,29.53
2018-12-14T09:45:52.906Z,37.20
2018-12-14T09:48:20.392Z,42.30
2018-12-14T09:50:47.898Z,32.13
2018-12-14T09:53:15.380Z,32.27
2018-12-14T09:55:42.832Z,35.40
2018-12-14T09:58:10.316Z,26.20
2018-12-14T10:00:37.776Z,34.20
2018-12-14T10:03:05.314Z,32.00
2018-12-14T10:05:32.808Z,37.23
2018-12-14T10:08:00.297Z,33.30
2018-12-14T10:10:27.803Z,34.13
2018-12-14T10:12:55.292Z,33.37
2018-12-14T10:15:22.847Z,30.67
2018-12-14T10:17:50.303Z,27.67
2018-12-14T10:20:17.792Z,34.30
2018-12-14T10:22:45.250Z,32.70
2018-12-14T10:25:12.700Z,33.87
2018-12-14T10:27:40.170Z,38.70
2018-12-14T10:30:09.334Z,33.40
2018-12-14T10:32:36.787Z,29.93
2018-12-14T10:35:07.560Z,28.70
2018-12-14T10:37:35.038Z,30.43
2018-12-14T10:40:03.195Z,27.20
2018-12-14T10:42:30.706Z,38.07
2018-12-14T10:44:58.257Z,28.53
2018-12-14T10:47:25.770Z,26.33
2018-12-14T10:49:53.238Z,32.87
2018-12-14T10:52:20.743Z,32.10
2018-12-14T10:54:48.286Z,32.47
2018-12-14T10:57:16.265Z,33.67
2018-12-14T10:59:43.942Z,27.83
2018-12-14T11:02:11.413Z,28.97
2018-12-14T11:04:38.994Z,29.60
2018-12-14T11:07:06.498Z,21.47
2018-12-14T11:09:34.020Z,26.07
2018-12-14T11:12:01.618Z,33.10
2018-12-14T11:14:29.150Z,31.20
2018-12-14T11:16:56.633Z,33.03
2018-12-14T11:19:24.080Z,32.63
2018-12-14T11:21:51.566Z,36.07
2018-12-14T11:24:19.026Z,34.27
2018-12-14T11:26:46.487Z,34.73
2018-12-14T11:29:14.008Z,28.20
2018-12-14T11:31:42.371Z,30.93
2018-12-14T11:34:09.846Z,31.87
2018-12-14T11:36:37.368Z,28.07
2018-12-14T11:39:06.123Z,26.07
2018-12-14T11:41:33.754Z,28.60
2018-12-14T11:44:01.231Z,29.73
2018-12-14T11:46:28.706Z,29.43
2018-12-14T11:48:56.247Z,32.77
2018-12-14T11:51:23.702Z,30.63
2018-12-14T11:53:51.166Z,32.33
2018-12-14T11:56:18.655Z,22.93
2018-12-14T11:58:46.113Z,28.70
2018-12-14T12:01:13.623Z,32.33
2018-12-14T12:03:42.874Z,32.00
2018-12-14T12:06:10.547Z,32.43
2018-12-14T12:08:38.020Z,29.40
2018-12-14T12:11:05.511Z,29.00
2018-12-14T12:13:32.949Z,30.07
2018-12-14T12:16:00.430Z,28.43
2018-12-14T12:18:27.897Z,27.00
2018-12-14T12:20:55.431Z,31.33
2018-12-14T12:23:22.889Z,26.37
2018-12-14T12:25:50.382Z,27.10
2018-12-14T12:28:17.842Z,34.40
2018-12-14T12:30:45.326Z,25.03
2018-12-14T12:33:12.781Z,31.47
2018-12-14T12:35:40.251Z,25.83
2018-12-14T12:38:07.731Z,34.47
2018-12-14T12:40:35.195Z,27.90
2018-12-14T12:43:02.664Z,28.67
2018-12-14T12:45:30.199Z,24.17
2018-12-14T12:47:57.651Z,26.70
2018-12-14T12:50:25.129Z,28.60
2018-12-14T12:52:52.590Z,31.10
2018-12-14T12:55:20.078Z,34.13
2018-12-14T12:57:47.547Z,33.37
2018-12-14T13:00:15.130Z,31.07
2018-12-14T13:02:42.614Z,36.37
2018-12-14T13:05:10.130Z,26.43
2018-12-14T13:07:37.612Z,28.03
2018-12-14T13:10:05.115Z,28.17
2018-12-14T13:12:32.602Z,21.83
2018-12-14T13:15:00.072Z,24.27
2018-12-14T13:17:27.558Z,27.97
2018-12-14T13:19:55.014Z,25.17
2018-12-14T13:22:22.502Z,29.57
2018-12-14T13:24:49.958Z,31.43
2018-12-14T13:27:20.344Z,27.60
2018-12-14T13:29:47.169Z,25.33
2018-12-14T13:32:14.635Z,26.97
2018-12-14T13:34:42.117Z,29.20
2018-12-14T13:37:09.608Z,29.00
2018-12-14T13:39:37.125Z,25.17
2018-12-14T13:42:04.701Z,25.07
2018-12-14T13:44:32.338Z,26.07
2018-12-14T13:46:59.947Z,25.57
2018-12-14T13:49:27.454Z,30.23
2018-12-14T13:51:54.923Z,26.10
2018-12-14T13:54:22.384Z,30.97
2018-12-14T13:56:49.873Z,24.73
2018-12-14T13:59:17.347Z,26.87
2018-12-14T14:01:44.807Z,29.10
2018-12-14T14:04:12.351Z,26.63
2018-12-14T14:06:39.794Z,34.30
2018-12-14T14:09:07.299Z,33.87
2018-12-14T14:11:34.815Z,29.00
2018-12-14T14:14:02.287Z,26.30
2018-12-14T14:16:29.766Z,22.63
2018-12-14T14:18:57.250Z,29.77
2018-12-14T14:21:24.789Z,28.73
2018-12-14T14:23:52.274Z,26.97
2018-12-14T14:26:19.744Z,31.50
2018-12-14T14:28:47.200Z,28.20
2018-12-14T14:31:14.698Z,24.40
2018-12-14T14:33:42.154Z,26.00
2018-12-14T14:36:09.616Z,31.30
2018-12-14T14:38:37.249Z,26.50
2018-12-14T14:41:04.731Z,27.77
2018-12-14T14:43:32.186Z,26.30
2018-12-14T14:45:59.635Z,27.63
2018-12-14T14:48:27.097Z,24.80
2018-12-14T14:50:54.582Z,26.50
2018-12-14T14:53:22.056Z,25.60
2018-12-14T14:55:49.515Z,23.50
2018-12-14T14:58:17.034Z,24.67
2018-12-14T15:00:44.500Z,26.80
2018-12-14T15:03:12.006Z,25.50
2018-12-14T15:05:39.513Z,30.07
2018-12-14T15:08:06.970Z,26.43
2018-12-14T15:10:34.442Z,36.93
2018-12-14T15:13:01.907Z,23.87
2018-12-14T15:15:29.486Z,29.30
2018-12-14T15:17:56.957Z,26.20
2018-12-14T15:20:24.470Z,24.60
2018-12-14T15:22:51.927Z,29.53
2018-12-14T15:25:19.400Z,21.10
2018-12-14T15:27:46.860Z,26.43
2018-12-14T15:30:14.346Z,25.73
2018-12-14T15:32:41.806Z,19.23
2018-12-14T15:35:09.275Z,22.00
2018-12-14T15:37:36.797Z,25.70
2018-12-14T15:40:06.529Z,22.60
2018-12-14T15:42:34.009Z,20.97
2018-12-14T15:45:01.510Z,20.17
2018-12-14T15:47:29.064Z,20.87
2018-12-14T15:49:56.522Z,22.33
2018-12-14T15:52:24.051Z,21.10
2018-12-14T15:54:51.530Z,25.27
2018-12-14T15:57:19.047Z,24.83
2018-12-14T15:59:46.558Z,22.50
2018-12-14T16:02:14.031Z,24.70
2018-12-14T16:04:41.505Z,27.00
2018-12-14T16:07:09.047Z,25.17
2018-12-14T16:09:36.503Z,24.07
2018-12-14T16:12:04.027Z,29.90
2018-12-14T16:14:34.454Z,25.77
2018-12-14T16:17:01.035Z,31.27
2018-12-14T16:19:28.496Z,29.23
2018-12-14T16:21:55.994Z,29.10
2018-12-14T16:24:23.563Z,28.00
2018-12-14T16:26:51.024Z,24.20
2018-12-14T16:29:18.574Z,21.60
2018-12-14T16:31:46.112Z,29.03
2018-12-14T16:34:13.592Z,22.47
2018-12-14T16:36:41.091Z,24.60
2018-12-14T16:39:08.544Z,23.70
2018-12-14T16:41:36.080Z,25.37
2018-12-14T16:44:03.561Z,29.10
2018-12-14T16:46:49.228Z,28.57
2018-12-14T16:49:16.753Z,28.40
2018-12-14T16:51:44.360Z,30.93
2018-12-14T16:54:11.808Z,24.67
2018-12-14T16:56:39.281Z,30.70
2018-12-14T16:59:06.758Z,29.20
2018-12-14T17:01:34.247Z,27.30
2018-12-14T17:04:01.791Z,23.13
2018-12-14T17:06:29.319Z,26.37
2018-12-14T17:08:56.817Z,30.23
2018-12-14T17:11:24.559Z,23.90
2018-12-14T17:13:52.078Z,29.17
2018-12-14T17:16:19.564Z,25.47
2018-12-14T17:18:47.014Z,24.73
2018-12-14T17:21:14.513Z,29.40
2018-12-14T17:23:41.995Z,28.13
2018-12-14T17:26:09.498Z,24.23
2018-12-14T17:28:37.018Z,26.03
2018-12-14T17:31:04.566Z,24.00
2018-12-14T17:33:35.979Z,22.73
2018-12-14T17:36:01.536Z,30.17
2018-12-14T17:38:28.991Z,24.47
2018-12-14T17:40:56.458Z,27.83
2018-12-14T17:43:23.916Z,24.10
2018-12-14T17:45:51.402Z,26.90
2018-12-14T17:48:18.903Z,23.90
2018-12-14T17:50:46.357Z,36.03
2018-12-14T17:53:13.827Z,27.80
2018-12-14T17:55:41.303Z,21.73
2018-12-14T17:58:08.754Z,26.40
2018-12-14T18:00:36.585Z,28.70
2018-12-14T18:03:04.082Z,23.43
2018-12-14T18:05:31.563Z,27.37
2018-12-14T18:07:59.019Z,28.40
2018-12-14T18:10:26.501Z,31.10
2018-12-14T18:12:53.969Z,25.40
2018-12-14T18:15:21.422Z,23.03
2018-12-14T18:17:48.900Z,19.63
2018-12-14T18:20:16.390Z,22.67
2018-12-14T18:22:43.894Z,27.33
2018-12-14T18:25:11.779Z,27.93
2018-12-14T18:27:39.693Z,19.57
2018-12-14T18:30:13.051Z,26.30
2018-12-14T18:32:40.510Z,23.83
2018-12-14T18:35:08.078Z,24.00
2018-12-14T18:37:35.560Z,23.13
2018-12-14T18:40:04.509Z,28.37
2018-12-14T18:42:32.079Z,26.27
2018-12-14T18:44:59.545Z,24.57
2018-12-14T18:47:27.136Z,32.10
2018-12-14T18:49:54.673Z,29.47
2018-12-14T18:52:22.252Z,28.40
2018-12-14T18:54:49.833Z,24.37
2018-12-14T18:57:17.471Z,25.83
2018-12-14T18:59:45.030Z,27.23
2018-12-14T19:02:13.539Z,28.77
2018-12-14T19:04:41.005Z,27.83
2018-12-14T19:07:08.575Z,35.43
2018-12-14T19:09:36.353Z,34.00
2018-12-14T19:12:03.991Z,28.23
2018-12-14T19:14:31.539Z,28.63
2018-12-14T19:16:59.019Z,27.10
2018-12-14T19:19:26.463Z,26.43
2018-12-14T19:21:53.955Z,22.87
2018-12-14T19:24:21.569Z,25.57
2018-12-14T19:26:49.043Z,26.40
2018-12-14T19:29:16.612Z,23.80
2018-12-14T19:31:44.132Z,28.67
2018-12-14T19:34:11.607Z,34.33
2018-12-14T19:36:39.069Z,24.30
2018-12-14T19:39:06.621Z,25.07
2018-12-14T19:41:34.105Z,29.87
2018-12-14T19:44:01.660Z,23.70
2018-12-14T19:46:29.137Z,28.37
2018-12-14T19:48:56.708Z,36.73
2018-12-14T19:51:24.285Z,33.70
2018-12-14T19:53:51.995Z,34.30
2018-12-14T19:56:19.561Z,27.10
2018-12-14T19:58:47.086Z,25.10
2018-12-14T20:01:14.592Z,28.90
2018-12-14T20:03:42.073Z,31.30
2018-12-14T20:06:09.584Z,28.60
2018-12-14T20:08:37.246Z,40.30
2018-12-14T20:11:04.911Z,36.60
2018-12-14T20:13:32.434Z,25.33
2018-12-14T20:15:59.916Z,33.30
2018-12-14T20:18:27.541Z,26.47
2018-12-14T20:20:55.093Z,29.77
2018-12-14T20:23:22.777Z,28.20
2018-12-14T20:25:50.445Z,29.10
2018-12-14T20:28:17.928Z,31.90
2018-12-14T20:30:45.382Z,31.70
2018-12-14T20:33:12.955Z,29.30
2018-12-14T20:35:40.489Z,29.47
2018-12-14T20:38:08.208Z,32.23
2018-12-14T20:40:35.770Z,30.33
2018-12-14T20:43:03.774Z,29.53
2018-12-14T20:45:31.473Z,36.27
2018-12-14T20:47:58.954Z,25.33
2018-12-14T20:50:26.417Z,28.73
2018-12-14T20:52:53.900Z,38.10
2018-12-14T20:55:21.474Z,32.57
2018-12-14T20:57:49.137Z,29.27
2018-12-14T21:00:16.717Z,23.97
2018-12-14T21:02:44.213Z,29.87
2018-12-14T21:05:11.838Z,28.70
2018-12-14T21:07:39.297Z,27.50
2018-12-14T21:10:07.011Z,29.30
2018-12-14T21:12:34.595Z,30.07
2018-12-14T21:15:02.164Z,27.87
2018-12-14T21:17:29.777Z,25.83
2018-12-14T21:19:57.344Z,28.63
2018-12-14T21:22:25.101Z,25.13
2018-12-14T21:24:53.776Z,32.40
2018-12-14T21:27:21.406Z,27.60
2018-12-14T21:29:49.832Z,33.20
2018-12-14T21:32:17.345Z,30.33
2018-12-14T21:34:44.941Z,30.37
2018-12-14T21:37:12.421Z,26.30
2018-12-14T21:39:39.875Z,26.57
2018-12-14T21:42:07.363Z,29.70
2018-12-14T21:44:34.826Z,30.50
2018-12-14T21:47:02.314Z,31.63
2018-12-14T21:49:30.036Z,31.30
2018-12-14T21:51:57.505Z,29.80
2018-12-14T21:54:24.991Z,27.47
2018-12-14T21:56:52.442Z,37.03
2018-12-14T21:59:19.920Z,29.50
2018-12-14T22:01:47.442Z,28.63
2018-12-14T22:04:14.948Z,30.60
2018-12-14T22:06:42.412Z,27.97
2018-12-14T22:09:09.872Z,34.50
2018-12-14T22:11:37.341Z,30.77
2018-12-14T22:14:04.918Z,28.83
2018-12-14T22:16:38.972Z,29.73
2018-12-14T22:19:02.001Z,27.13
2018-12-14T22:21:29.455Z,29.70
2018-12-14T22:23:56.950Z,30.97
2018-12-14T22:26:24.533Z,31.03
2018-12-14T22:28:52.054Z,27.60
2018-12-14T22:31:19.513Z,26.37
2018-12-14T22:33:47.008Z,32.10
2018-12-14T22:36:14.462Z,36.67
2018-12-14T22:38:41.954Z,28.03
2018-12-14T22:41:09.419Z,29.97
2018-12-14T22:43:36.870Z,31.33
2018-12-14T22:46:04.369Z,28.37
2018-12-14T22:48:31.865Z,29.17
2018-12-14T22:50:59.326Z,31.27
2018-12-14T22:53:26.806Z,26.63
2018-12-14T22:55:54.322Z,26.73
2018-12-14T22:58:21.805Z,29.73
2018-12-14T23:00:53.462Z,30.43
2018-12-14T23:03:21.235Z,32.50
2018-12-14T23:05:49.580Z,34.43
2018-12-14T23:08:17.110Z,27.27
2018-12-14T23:10:44.570Z,28.80
2018-12-14T23:13:12.067Z,28.47
2018-12-14T23:15:39.688Z,28.53
2018-12-14T23:18:07.202Z,27.50
2018-12-14T23:20:34.705Z,32.53
2018-12-14T23:23:02.232Z,32.57
2018-12-14T23:25:29.811Z,28.93
2018-12-14T23:27:57.257Z,35.37
2018-12-14T23:30:24.726Z,32.37
2018-12-14T23:32:52.358Z,30.70
2018-12-14T23:35:19.878Z,31.50
2018-12-14T23:37:47.342Z,27.43
2018-12-14T23:40:14.827Z,31.90
2018-12-14T23:42:42.306Z,27.67
2018-12-14T23:45:09.870Z,34.50
2018-12-14T23:47:37.342Z,25.00
2018-12-14T23:50:04.836Z,34.63
2018-12-14T23:52:32.309Z,25.63
2018-12-14T23:54:59.764Z,32.07
2018-12-14T23:57:27.317Z,29.77
2018-12-14T23:59:54.853Z,28.80
